sensor_id;sensor_type;location;lat;lon;timestamp;P1;durP1;ratioP1;P2;durP2;ratioP2
16784;SDS011;8509;52.178;5.404;2024-03-06T00:02:07;18.48;;;10.57;;
16784;SDS011;8509;52.178;5.404;2024-03-06T00:04:33;22.98;;;10.45;;
16784;SDS011;8509;52.178;5.404;2024-03-06T00:06:59;22.88;;;11.30;;
16784;SDS011;8509;52.178;5.404;2024-03-06T00:09:25;22.13;;;11.15;;
16784;SDS011;8509;52.178;5.404;2024-03-06T00:11:52;17.83;;;9.55;;
16784;SDS011;8509;52.178;5.404;2024-03-06T00:14:21;15.60;;;10.10;;
16784;SDS011;8509;52.178;5.404;2024-03-06T00:16:47;16.50;;;9.30;;
16784;SDS011;8509;52.178;5.404;2024-03-06T00:19:15;20.58;;;10.95;;
16784;SDS011;8509;52.178;5.404;2024-03-06T00:21:44;20.40;;;10.57;;
16784;SDS011;8509;52.178;5.404;2024-03-06T00:24:13;22.92;;;10.98;;
16784;SDS011;8509;52.178;5.404;2024-03-06T00:26:40;19.55;;;10.20;;
16784;SDS011;8509;52.178;5.404;2024-03-06T00:29:06;19.60;;;10.50;;
16784;SDS011;8509;52.178;5.404;2024-03-06T00:31:33;17.38;;;9.73;;
16784;SDS011;8509;52.178;5.404;2024-03-06T00:33:59;20.00;;;11.20;;
16784;SDS011;8509;52.178;5.404;2024-03-06T00:36:24;18.48;;;10.35;;
16784;SDS011;8509;52.178;5.404;2024-03-06T00:38:50;22.25;;;10.60;;
16784;SDS011;8509;52.178;5.404;2024-03-06T00:41:16;18.23;;;9.52;;
16784;SDS011;8509;52.178;5.404;2024-03-06T00:43:41;19.40;;;10.25;;
16784;SDS011;8509;52.178;5.404;2024-03-06T00:46:07;19.58;;;10.65;;
16784;SDS011;8509;52.178;5.404;2024-03-06T00:48:33;19.30;;;10.13;;
16784;SDS011;8509;52.178;5.404;2024-03-06T00:50:58;19.90;;;10.48;;
16784;SDS011;8509;52.178;5.404;2024-03-06T00:53:24;20.35;;;11.43;;
16784;SDS011;8509;52.178;5.404;2024-03-06T00:55:50;18.80;;;10.32;;
16784;SDS011;8509;52.178;5.404;2024-03-06T00:58:15;23.02;;;11.57;;
16784;SDS011;8509;52.178;5.404;2024-03-06T01:00:41;18.52;;;9.57;;
16784;SDS011;8509;52.178;5.404;2024-03-06T01:03:06;19.00;;;11.52;;
16784;SDS011;8509;52.178;5.404;2024-03-06T01:05:32;24.33;;;11.35;;
16784;SDS011;8509;52.178;5.404;2024-03-06T01:07:58;23.60;;;11.95;;
16784;SDS011;8509;52.178;5.404;2024-03-06T01:10:24;23.42;;;12.07;;
16784;SDS011;8509;52.178;5.404;2024-03-06T01:12:50;17.08;;;10.15;;
16784;SDS011;8509;52.178;5.404;2024-03-06T01:15:16;21.55;;;10.52;;
16784;SDS011;8509;52.178;5.404;2024-03-06T01:17:41;20.77;;;11.25;;
16784;SDS011;8509;52.178;5.404;2024-03-06T01:20:07;21.58;;;11.63;;
16784;SDS011;8509;52.178;5.404;2024-03-06T01:22:34;18.38;;;10.30;;
16784;SDS011;8509;52.178;5.404;2024-03-06T01:25:00;20.33;;;10.30;;
16784;SDS011;8509;52.178;5.404;2024-03-06T01:27:26;19.58;;;11.35;;
16784;SDS011;8509;52.178;5.404;2024-03-06T01:29:52;22.88;;;11.43;;
16784;SDS011;8509;52.178;5.404;2024-03-06T01:32:17;21.90;;;11.50;;
16784;SDS011;8509;52.178;5.404;2024-03-06T01:34:46;25.38;;;11.77;;
16784;SDS011;8509;52.178;5.404;2024-03-06T01:37:12;23.52;;;11.95;;
16784;SDS011;8509;52.178;5.404;2024-03-06T01:39:37;20.63;;;10.95;;
16784;SDS011;8509;52.178;5.404;2024-03-06T01:42:03;19.45;;;11.00;;
16784;SDS011;8509;52.178;5.404;2024-03-06T01:44:29;22.77;;;10.35;;
16784;SDS011;8509;52.178;5.404;2024-03-06T01:46:55;19.67;;;11.32;;
16784;SDS011;8509;52.178;5.404;2024-03-06T01:49:21;21.63;;;12.07;;
16784;SDS011;8509;52.178;5.404;2024-03-06T01:51:55;21.08;;;10.75;;
16784;SDS011;8509;52.178;5.404;2024-03-06T01:54:22;27.83;;;11.48;;
16784;SDS011;8509;52.178;5.404;2024-03-06T01:56:49;19.05;;;11.52;;
16784;SDS011;8509;52.178;5.404;2024-03-06T01:59:16;23.58;;;13.52;;
16784;SDS011;8509;52.178;5.404;2024-03-06T02:01:44;27.10;;;12.20;;
16784;SDS011;8509;52.178;5.404;2024-03-06T02:04:11;26.55;;;12.57;;
16784;SDS011;8509;52.178;5.404;2024-03-06T02:06:40;25.42;;;12.38;;
16784;SDS011;8509;52.178;5.404;2024-03-06T02:09:06;24.90;;;11.93;;
16784;SDS011;8509;52.178;5.404;2024-03-06T02:11:33;23.20;;;11.88;;
16784;SDS011;8509;52.178;5.404;2024-03-06T02:13:58;24.00;;;11.02;;
16784;SDS011;8509;52.178;5.404;2024-03-06T02:16:24;23.25;;;12.02;;
16784;SDS011;8509;52.178;5.404;2024-03-06T02:18:51;21.58;;;11.65;;
16784;SDS011;8509;52.178;5.404;2024-03-06T02:21:19;17.58;;;9.93;;
16784;SDS011;8509;52.178;5.404;2024-03-06T02:23:50;21.42;;;12.48;;
16784;SDS011;8509;52.178;5.404;2024-03-06T02:26:20;23.20;;;10.98;;
16784;SDS011;8509;52.178;5.404;2024-03-06T02:28:47;20.25;;;10.23;;
16784;SDS011;8509;52.178;5.404;2024-03-06T02:31:16;21.05;;;11.48;;
16784;SDS011;8509;52.178;5.404;2024-03-06T02:33:43;22.70;;;11.05;;
16784;SDS011;8509;52.178;5.404;2024-03-06T02:36:10;20.15;;;11.20;;
16784;SDS011;8509;52.178;5.404;2024-03-06T02:38:36;23.58;;;11.32;;
16784;SDS011;8509;52.178;5.404;2024-03-06T02:41:02;21.27;;;10.98;;
16784;SDS011;8509;52.178;5.404;2024-03-06T02:43:28;25.80;;;11.57;;
16784;SDS011;8509;52.178;5.404;2024-03-06T02:45:54;29.45;;;11.77;;
16784;SDS011;8509;52.178;5.404;2024-03-06T02:48:20;21.50;;;10.68;;
16784;SDS011;8509;52.178;5.404;2024-03-06T02:50:45;28.38;;;12.55;;
16784;SDS011;8509;52.178;5.404;2024-03-06T02:53:11;20.92;;;12.02;;
16784;SDS011;8509;52.178;5.404;2024-03-06T02:55:37;16.88;;;10.48;;
16784;SDS011;8509;52.178;5.404;2024-03-06T02:58:03;18.00;;;10.98;;
16784;SDS011;8509;52.178;5.404;2024-03-06T03:00:29;24.42;;;12.40;;
16784;SDS011;8509;52.178;5.404;2024-03-06T03:02:57;20.23;;;11.63;;
16784;SDS011;8509;52.178;5.404;2024-03-06T03:05:23;21.20;;;11.73;;
16784;SDS011;8509;52.178;5.404;2024-03-06T03:07:49;25.63;;;12.02;;
16784;SDS011;8509;52.178;5.404;2024-03-06T03:10:15;25.17;;;12.38;;
16784;SDS011;8509;52.178;5.404;2024-03-06T03:12:41;28.17;;;12.65;;
16784;SDS011;8509;52.178;5.404;2024-03-06T03:15:07;24.40;;;11.77;;
16784;SDS011;8509;52.178;5.404;2024-03-06T03:17:34;21.98;;;11.65;;
16784;SDS011;8509;52.178;5.404;2024-03-06T03:19:59;23.75;;;11.57;;
16784;SDS011;8509;52.178;5.404;2024-03-06T03:22:26;20.42;;;11.93;;
16784;SDS011;8509;52.178;5.404;2024-03-06T03:24:52;23.73;;;11.90;;
16784;SDS011;8509;52.178;5.404;2024-03-06T03:27:18;22.95;;;10.82;;
16784;SDS011;8509;52.178;5.404;2024-03-06T03:29:44;26.20;;;12.98;;
16784;SDS011;8509;52.178;5.404;2024-03-06T03:32:09;22.75;;;10.77;;
16784;SDS011;8509;52.178;5.404;2024-03-06T03:34:35;24.45;;;12.20;;
16784;SDS011;8509;52.178;5.404;2024-03-06T03:37:01;18.90;;;10.60;;
16784;SDS011;8509;52.178;5.404;2024-03-06T03:39:27;26.67;;;11.50;;
16784;SDS011;8509;52.178;5.404;2024-03-06T03:41:52;27.33;;;12.15;;
16784;SDS011;8509;52.178;5.404;2024-03-06T03:44:18;26.27;;;12.35;;
16784;SDS011;8509;52.178;5.404;2024-03-06T03:46:44;21.17;;;12.23;;
16784;SDS011;8509;52.178;5.404;2024-03-06T03:49:10;23.95;;;11.52;;
16784;SDS011;8509;52.178;5.404;2024-03-06T03:51:36;25.08;;;11.70;;
16784;SDS011;8509;52.178;5.404;2024-03-06T03:54:03;24.00;;;11.93;;
16784;SDS011;8509;52.178;5.404;2024-03-06T03:56:29;20.30;;;11.50;;
16784;SDS011;8509;52.178;5.404;2024-03-06T03:58:58;25.67;;;12.57;;
16784;SDS011;8509;52.178;5.404;2024-03-06T04:01:24;23.73;;;12.70;;
16784;SDS011;8509;52.178;5.404;2024-03-06T04:03:50;23.95;;;11.95;;
16784;SDS011;8509;52.178;5.404;2024-03-06T04:06:15;25.67;;;13.45;;
16784;SDS011;8509;52.178;5.404;2024-03-06T04:08:41;23.75;;;10.52;;
16784;SDS011;8509;52.178;5.404;2024-03-06T04:11:07;25.45;;;12.13;;
16784;SDS011;8509;52.178;5.404;2024-03-06T04:13:36;24.35;;;11.60;;
16784;SDS011;8509;52.178;5.404;2024-03-06T04:16:02;21.73;;;12.75;;
16784;SDS011;8509;52.178;5.404;2024-03-06T04:18:29;24.60;;;12.98;;
16784;SDS011;8509;52.178;5.404;2024-03-06T04:23:30;23.38;;;10.10;;
16784;SDS011;8509;52.178;5.404;2024-03-06T04:25:56;22.75;;;11.68;;
16784;SDS011;8509;52.178;5.404;2024-03-06T04:28:22;21.50;;;11.18;;
16784;SDS011;8509;52.178;5.404;2024-03-06T04:30:47;26.50;;;12.13;;
16784;SDS011;8509;52.178;5.404;2024-03-06T04:33:13;22.92;;;11.52;;
16784;SDS011;8509;52.178;5.404;2024-03-06T04:35:40;23.38;;;11.02;;
16784;SDS011;8509;52.178;5.404;2024-03-06T04:38:06;22.80;;;11.13;;
16784;SDS011;8509;52.178;5.404;2024-03-06T04:40:32;20.67;;;10.15;;
16784;SDS011;8509;52.178;5.404;2024-03-06T04:42:59;19.65;;;10.77;;
16784;SDS011;8509;52.178;5.404;2024-03-06T04:45:25;24.30;;;11.70;;
16784;SDS011;8509;52.178;5.404;2024-03-06T04:47:51;19.98;;;10.38;;
16784;SDS011;8509;52.178;5.404;2024-03-06T04:50:16;26.27;;;10.93;;
16784;SDS011;8509;52.178;5.404;2024-03-06T04:52:43;24.10;;;11.05;;
16784;SDS011;8509;52.178;5.404;2024-03-06T04:55:09;18.73;;;9.70;;
16784;SDS011;8509;52.178;5.404;2024-03-06T04:57:36;19.15;;;10.43;;
16784;SDS011;8509;52.178;5.404;2024-03-06T05:00:03;18.40;;;9.95;;
16784;SDS011;8509;52.178;5.404;2024-03-06T05:02:33;19.83;;;10.73;;
16784;SDS011;8509;52.178;5.404;2024-03-06T05:05:00;20.00;;;9.93;;
16784;SDS011;8509;52.178;5.404;2024-03-06T05:07:30;21.67;;;10.88;;
16784;SDS011;8509;52.178;5.404;2024-03-06T05:09:57;18.33;;;9.32;;
16784;SDS011;8509;52.178;5.404;2024-03-06T05:12:23;21.23;;;10.27;;
16784;SDS011;8509;52.178;5.404;2024-03-06T05:14:53;20.67;;;11.40;;
16784;SDS011;8509;52.178;5.404;2024-03-06T05:17:19;29.02;;;12.40;;
16784;SDS011;8509;52.178;5.404;2024-03-06T05:19:46;21.23;;;10.90;;
16784;SDS011;8509;52.178;5.404;2024-03-06T05:22:13;18.70;;;10.13;;
16784;SDS011;8509;52.178;5.404;2024-03-06T05:24:39;21.00;;;10.05;;
16784;SDS011;8509;52.178;5.404;2024-03-06T05:27:05;20.63;;;9.95;;
16784;SDS011;8509;52.178;5.404;2024-03-06T05:29:31;21.95;;;10.77;;
16784;SDS011;8509;52.178;5.404;2024-03-06T05:31:57;22.23;;;10.32;;
16784;SDS011;8509;52.178;5.404;2024-03-06T05:34:22;19.38;;;11.20;;
16784;SDS011;8509;52.178;5.404;2024-03-06T05:36:48;21.80;;;12.27;;
16784;SDS011;8509;52.178;5.404;2024-03-06T05:39:14;22.13;;;10.13;;
16784;SDS011;8509;52.178;5.404;2024-03-06T05:41:40;25.65;;;11.13;;
16784;SDS011;8509;52.178;5.404;2024-03-06T05:44:07;23.35;;;11.38;;
16784;SDS011;8509;52.178;5.404;2024-03-06T05:46:33;22.83;;;10.85;;
16784;SDS011;8509;52.178;5.404;2024-03-06T05:48:58;24.40;;;11.65;;
16784;SDS011;8509;52.178;5.404;2024-03-06T05:51:25;26.83;;;11.52;;
16784;SDS011;8509;52.178;5.404;2024-03-06T05:53:51;24.95;;;12.82;;
16784;SDS011;8509;52.178;5.404;2024-03-06T05:56:17;24.95;;;11.57;;
16784;SDS011;8509;52.178;5.404;2024-03-06T05:58:43;26.27;;;12.82;;
16784;SDS011;8509;52.178;5.404;2024-03-06T06:01:11;17.63;;;9.95;;
16784;SDS011;8509;52.178;5.404;2024-03-06T06:03:47;23.27;;;10.82;;
16784;SDS011;8509;52.178;5.404;2024-03-06T06:06:17;27.67;;;13.02;;
16784;SDS011;8509;52.178;5.404;2024-03-06T06:08:44;21.05;;;11.63;;
16784;SDS011;8509;52.178;5.404;2024-03-06T06:11:10;18.85;;;10.25;;
16784;SDS011;8509;52.178;5.404;2024-03-06T06:13:36;20.65;;;10.55;;
16784;SDS011;8509;52.178;5.404;2024-03-06T06:16:04;23.73;;;9.93;;
16784;SDS011;8509;52.178;5.404;2024-03-06T06:18:30;20.45;;;10.65;;
16784;SDS011;8509;52.178;5.404;2024-03-06T06:20:57;20.92;;;10.73;;
16784;SDS011;8509;52.178;5.404;2024-03-06T06:23:23;21.67;;;10.45;;
16784;SDS011;8509;52.178;5.404;2024-03-06T06:25:49;21.73;;;10.75;;
16784;SDS011;8509;52.178;5.404;2024-03-06T06:28:15;23.35;;;11.07;;
16784;SDS011;8509;52.178;5.404;2024-03-06T06:30:40;23.75;;;10.45;;
16784;SDS011;8509;52.178;5.404;2024-03-06T06:33:06;21.58;;;10.32;;
16784;SDS011;8509;52.178;5.404;2024-03-06T06:35:33;18.63;;;10.10;;
16784;SDS011;8509;52.178;5.404;2024-03-06T06:37:59;19.90;;;10.00;;
16784;SDS011;8509;52.178;5.404;2024-03-06T06:40:26;22.50;;;10.02;;
16784;SDS011;8509;52.178;5.404;2024-03-06T06:42:53;19.42;;;10.32;;
16784;SDS011;8509;52.178;5.404;2024-03-06T06:45:22;17.30;;;8.73;;
16784;SDS011;8509;52.178;5.404;2024-03-06T06:47:48;18.23;;;10.07;;
16784;SDS011;8509;52.178;5.404;2024-03-06T06:50:16;16.58;;;9.55;;
16784;SDS011;8509;52.178;5.404;2024-03-06T06:52:42;20.83;;;9.38;;
16784;SDS011;8509;52.178;5.404;2024-03-06T06:55:08;20.08;;;10.20;;
16784;SDS011;8509;52.178;5.404;2024-03-06T06:57:37;17.80;;;8.65;;
16784;SDS011;8509;52.178;5.404;2024-03-06T07:00:03;17.58;;;9.80;;
16784;SDS011;8509;52.178;5.404;2024-03-06T07:02:41;16.70;;;8.88;;
16784;SDS011;8509;52.178;5.404;2024-03-06T07:05:08;17.30;;;8.27;;
16784;SDS011;8509;52.178;5.404;2024-03-06T07:07:34;15.32;;;8.85;;
16784;SDS011;8509;52.178;5.404;2024-03-06T07:10:01;14.48;;;8.32;;
16784;SDS011;8509;52.178;5.404;2024-03-06T07:12:28;19.67;;;8.38;;
16784;SDS011;8509;52.178;5.404;2024-03-06T07:14:53;20.00;;;8.52;;
16784;SDS011;8509;52.178;5.404;2024-03-06T07:17:19;20.00;;;10.93;;
16784;SDS011;8509;52.178;5.404;2024-03-06T07:19:45;17.38;;;9.05;;
16784;SDS011;8509;52.178;5.404;2024-03-06T07:22:10;22.35;;;9.45;;
16784;SDS011;8509;52.178;5.404;2024-03-06T07:24:36;26.52;;;9.85;;
16784;SDS011;8509;52.178;5.404;2024-03-06T07:27:02;21.55;;;9.65;;
16784;SDS011;8509;52.178;5.404;2024-03-06T07:29:28;15.52;;;9.85;;
16784;SDS011;8509;52.178;5.404;2024-03-06T07:31:54;20.70;;;9.27;;
16784;SDS011;8509;52.178;5.404;2024-03-06T07:34:19;19.52;;;9.45;;
16784;SDS011;8509;52.178;5.404;2024-03-06T07:36:48;22.02;;;11.60;;
16784;SDS011;8509;52.178;5.404;2024-03-06T07:39:18;19.65;;;10.93;;
16784;SDS011;8509;52.178;5.404;2024-03-06T07:41:45;27.45;;;10.85;;
16784;SDS011;8509;52.178;5.404;2024-03-06T07:44:11;21.85;;;11.35;;
16784;SDS011;8509;52.178;5.404;2024-03-06T07:46:37;31.85;;;13.95;;
16784;SDS011;8509;52.178;5.404;2024-03-06T07:49:03;21.08;;;11.60;;
16784;SDS011;8509;52.178;5.404;2024-03-06T07:51:30;20.42;;;11.50;;
16784;SDS011;8509;52.178;5.404;2024-03-06T07:53:59;26.92;;;11.70;;
16784;SDS011;8509;52.178;5.404;2024-03-06T07:56:25;31.92;;;13.02;;
16784;SDS011;8509;52.178;5.404;2024-03-06T07:58:52;28.02;;;13.25;;
16784;SDS011;8509;52.178;5.404;2024-03-06T08:01:18;21.70;;;13.18;;
16784;SDS011;8509;52.178;5.404;2024-03-06T08:03:45;33.38;;;13.40;;
16784;SDS011;8509;52.178;5.404;2024-03-06T08:06:11;24.65;;;13.65;;
16784;SDS011;8509;52.178;5.404;2024-03-06T08:08:40;30.10;;;12.23;;
16784;SDS011;8509;52.178;5.404;2024-03-06T08:11:07;31.55;;;14.32;;
16784;SDS011;8509;52.178;5.404;2024-03-06T08:13:36;27.10;;;12.30;;
16784;SDS011;8509;52.178;5.404;2024-03-06T08:16:02;28.02;;;12.85;;
16784;SDS011;8509;52.178;5.404;2024-03-06T08:18:29;28.25;;;12.15;;
16784;SDS011;8509;52.178;5.404;2024-03-06T08:20:55;28.45;;;13.18;;
16784;SDS011;8509;52.178;5.404;2024-03-06T08:23:21;26.92;;;13.20;;
16784;SDS011;8509;52.178;5.404;2024-03-06T08:25:48;26.95;;;12.60;;
16784;SDS011;8509;52.178;5.404;2024-03-06T08:28:14;24.75;;;13.02;;
16784;SDS011;8509;52.178;5.404;2024-03-06T08:30:40;26.35;;;12.35;;
16784;SDS011;8509;52.178;5.404;2024-03-06T08:33:06;25.55;;;12.98;;
16784;SDS011;8509;52.178;5.404;2024-03-06T08:35:32;27.80;;;13.45;;
16784;SDS011;8509;52.178;5.404;2024-03-06T08:37:57;29.40;;;13.75;;
16784;SDS011;8509;52.178;5.404;2024-03-06T08:40:23;31.33;;;14.40;;
16784;SDS011;8509;52.178;5.404;2024-03-06T08:42:53;25.45;;;13.07;;
16784;SDS011;8509;52.178;5.404;2024-03-06T08:45:19;30.15;;;14.13;;
16784;SDS011;8509;52.178;5.404;2024-03-06T08:47:45;30.52;;;13.10;;
16784;SDS011;8509;52.178;5.404;2024-03-06T08:50:15;26.88;;;13.43;;
16784;SDS011;8509;52.178;5.404;2024-03-06T08:52:41;30.52;;;13.40;;
16784;SDS011;8509;52.178;5.404;2024-03-06T08:55:07;25.92;;;12.50;;
16784;SDS011;8509;52.178;5.404;2024-03-06T08:57:36;28.42;;;14.80;;
16784;SDS011;8509;52.178;5.404;2024-03-06T09:00:03;30.75;;;14.85;;
16784;SDS011;8509;52.178;5.404;2024-03-06T09:02:36;26.33;;;13.10;;
16784;SDS011;8509;52.178;5.404;2024-03-06T09:05:06;25.02;;;12.98;;
16784;SDS011;8509;52.178;5.404;2024-03-06T09:07:33;29.15;;;15.48;;
16784;SDS011;8509;52.178;5.404;2024-03-06T09:10:04;27.48;;;13.48;;
16784;SDS011;8509;52.178;5.404;2024-03-06T09:12:30;25.80;;;13.55;;
16784;SDS011;8509;52.178;5.404;2024-03-06T09:14:56;27.40;;;13.75;;
16784;SDS011;8509;52.178;5.404;2024-03-06T09:17:22;28.00;;;12.50;;
16784;SDS011;8509;52.178;5.404;2024-03-06T09:19:47;22.77;;;12.60;;
16784;SDS011;8509;52.178;5.404;2024-03-06T09:22:13;33.97;;;13.18;;
16784;SDS011;8509;52.178;5.404;2024-03-06T09:24:39;26.80;;;13.43;;
16784;SDS011;8509;52.178;5.404;2024-03-06T09:27:04;29.83;;;13.38;;
16784;SDS011;8509;52.178;5.404;2024-03-06T09:29:30;29.70;;;12.55;;
16784;SDS011;8509;52.178;5.404;2024-03-06T09:31:59;29.20;;;12.75;;
16784;SDS011;8509;52.178;5.404;2024-03-06T09:34:24;31.70;;;13.25;;
16784;SDS011;8509;52.178;5.404;2024-03-06T09:36:50;30.50;;;13.50;;
16784;SDS011;8509;52.178;5.404;2024-03-06T09:39:17;30.10;;;12.48;;
16784;SDS011;8509;52.178;5.404;2024-03-06T09:41:48;27.30;;;12.95;;
16784;SDS011;8509;52.178;5.404;2024-03-06T09:44:21;30.27;;;13.75;;
16784;SDS011;8509;52.178;5.404;2024-03-06T09:46:48;28.02;;;13.63;;
16784;SDS011;8509;52.178;5.404;2024-03-06T09:49:15;23.65;;;12.80;;
16784;SDS011;8509;52.178;5.404;2024-03-06T09:51:46;30.23;;;14.43;;
16784;SDS011;8509;52.178;5.404;2024-03-06T09:54:14;31.27;;;13.57;;
16784;SDS011;8509;52.178;5.404;2024-03-06T09:56:42;27.90;;;13.18;;
16784;SDS011;8509;52.178;5.404;2024-03-06T10:01:41;28.98;;;12.77;;
16784;SDS011;8509;52.178;5.404;2024-03-06T10:04:28;27.77;;;13.48;;
16784;SDS011;8509;52.178;5.404;2024-03-06T10:06:54;25.73;;;12.98;;
16784;SDS011;8509;52.178;5.404;2024-03-06T10:09:24;23.88;;;12.30;;
16784;SDS011;8509;52.178;5.404;2024-03-06T10:11:50;28.88;;;14.02;;
16784;SDS011;8509;52.178;5.404;2024-03-06T10:14:21;25.90;;;13.60;;
16784;SDS011;8509;52.178;5.404;2024-03-06T10:16:51;28.50;;;13.48;;
16784;SDS011;8509;52.178;5.404;2024-03-06T10:19:18;24.45;;;12.68;;
16784;SDS011;8509;52.178;5.404;2024-03-06T10:21:48;21.75;;;12.02;;
16784;SDS011;8509;52.178;5.404;2024-03-06T10:24:22;30.05;;;12.85;;
16784;SDS011;8509;52.178;5.404;2024-03-06T10:26:51;22.27;;;12.85;;
16784;SDS011;8509;52.178;5.404;2024-03-06T10:29:19;25.60;;;12.95;;
16784;SDS011;8509;52.178;5.404;2024-03-06T10:31:55;21.33;;;11.98;;
16784;SDS011;8509;52.178;5.404;2024-03-06T10:34:24;21.33;;;11.75;;
16784;SDS011;8509;52.178;5.404;2024-03-06T10:36:55;24.90;;;13.45;;
16784;SDS011;8509;52.178;5.404;2024-03-06T10:39:22;22.17;;;12.38;;
16784;SDS011;8509;52.178;5.404;2024-03-06T10:41:51;22.88;;;11.40;;
16784;SDS011;8509;52.178;5.404;2024-03-06T10:44:20;22.05;;;11.05;;
16784;SDS011;8509;52.178;5.404;2024-03-06T10:46:47;22.95;;;11.13;;
16784;SDS011;8509;52.178;5.404;2024-03-06T10:49:22;25.75;;;12.10;;
16784;SDS011;8509;52.178;5.404;2024-03-06T10:51:49;31.50;;;13.75;;
16784;SDS011;8509;52.178;5.404;2024-03-06T10:54:15;22.33;;;11.70;;
16784;SDS011;8509;52.178;5.404;2024-03-06T10:56:41;23.38;;;11.18;;
16784;SDS011;8509;52.178;5.404;2024-03-06T10:59:11;26.67;;;12.98;;
16784;SDS011;8509;52.178;5.404;2024-03-06T11:01:46;22.73;;;11.88;;
16784;SDS011;8509;52.178;5.404;2024-03-06T11:04:12;26.25;;;12.43;;
16784;SDS011;8509;52.178;5.404;2024-03-06T11:06:40;23.60;;;12.82;;
16784;SDS011;8509;52.178;5.404;2024-03-06T11:09:06;23.17;;;12.40;;
16784;SDS011;8509;52.178;5.404;2024-03-06T11:11:46;18.90;;;9.82;;
16784;SDS011;8509;52.178;5.404;2024-03-06T11:14:13;17.55;;;9.70;;
16784;SDS011;8509;52.178;5.404;2024-03-06T11:16:57;23.35;;;11.00;;
16784;SDS011;8509;52.178;5.404;2024-03-06T11:28:34;20.33;;;9.93;;
16784;SDS011;8509;52.178;5.404;2024-03-06T11:31:03;20.35;;;11.10;;
16784;SDS011;8509;52.178;5.404;2024-03-06T11:33:44;19.55;;;10.13;;
16784;SDS011;8509;52.178;5.404;2024-03-06T11:38:58;19.27;;;10.02;;
16784;SDS011;8509;52.178;5.404;2024-03-06T11:44:12;19.35;;;9.35;;
16784;SDS011;8509;52.178;5.404;2024-03-06T11:49:21;21.27;;;10.30;;
16784;SDS011;8509;52.178;5.404;2024-03-06T11:51:53;19.92;;;11.38;;
16784;SDS011;8509;52.178;5.404;2024-03-06T11:54:20;20.08;;;9.48;;
16784;SDS011;8509;52.178;5.404;2024-03-06T11:56:49;19.27;;;9.48;;
16784;SDS011;8509;52.178;5.404;2024-03-06T11:59:16;14.98;;;9.38;;
16784;SDS011;8509;52.178;5.404;2024-03-06T12:01:42;20.00;;;8.50;;
16784;SDS011;8509;52.178;5.404;2024-03-06T12:04:09;15.48;;;8.88;;
16784;SDS011;8509;52.178;5.404;2024-03-06T12:06:35;17.60;;;9.20;;
16784;SDS011;8509;52.178;5.404;2024-03-06T12:09:02;16.08;;;8.73;;
16784;SDS011;8509;52.178;5.404;2024-03-06T12:11:28;17.05;;;7.85;;
16784;SDS011;8509;52.178;5.404;2024-03-06T12:13:56;20.15;;;9.80;;
16784;SDS011;8509;52.178;5.404;2024-03-06T12:16:22;19.08;;;8.75;;
16784;SDS011;8509;52.178;5.404;2024-03-06T12:18:57;16.25;;;8.13;;
16784;SDS011;8509;52.178;5.404;2024-03-06T12:21:32;15.65;;;7.32;;
16784;SDS011;8509;52.178;5.404;2024-03-06T12:24:05;14.23;;;7.28;;
16784;SDS011;8509;52.178;5.404;2024-03-06T12:26:34;13.27;;;6.75;;
16784;SDS011;8509;52.178;5.404;2024-03-06T12:29:08;12.00;;;6.78;;
16784;SDS011;8509;52.178;5.404;2024-03-06T12:31:37;13.30;;;7.15;;
16784;SDS011;8509;52.178;5.404;2024-03-06T12:34:07;15.23;;;6.00;;
16784;SDS011;8509;52.178;5.404;2024-03-06T12:36:34;13.70;;;6.00;;
16784;SDS011;8509;52.178;5.404;2024-03-06T12:39:00;12.55;;;6.40;;
16784;SDS011;8509;52.178;5.404;2024-03-06T12:41:27;10.52;;;5.70;;
16784;SDS011;8509;52.178;5.404;2024-03-06T12:43:53;10.05;;;4.82;;
16784;SDS011;8509;52.178;5.404;2024-03-06T12:46:20;9.25;;;6.03;;
16784;SDS011;8509;52.178;5.404;2024-03-06T12:48:46;11.63;;;6.00;;
16784;SDS011;8509;52.178;5.404;2024-03-06T12:51:12;10.38;;;5.35;;
16784;SDS011;8509;52.178;5.404;2024-03-06T12:53:38;8.95;;;4.93;;
16784;SDS011;8509;52.178;5.404;2024-03-06T12:56:05;9.63;;;5.20;;
16784;SDS011;8509;52.178;5.404;2024-03-06T12:58:31;9.23;;;5.32;;
16784;SDS011;8509;52.178;5.404;2024-03-06T13:00:57;6.70;;;4.13;;
16784;SDS011;8509;52.178;5.404;2024-03-06T13:03:26;5.35;;;3.40;;
16784;SDS011;8509;52.178;5.404;2024-03-06T13:05:52;6.10;;;4.07;;
16784;SDS011;8509;52.178;5.404;2024-03-06T13:08:18;7.85;;;4.28;;
16784;SDS011;8509;52.178;5.404;2024-03-06T13:10:44;8.57;;;4.13;;
16784;SDS011;8509;52.178;5.404;2024-03-06T13:13:10;9.32;;;4.30;;
16784;SDS011;8509;52.178;5.404;2024-03-06T13:15:36;8.00;;;4.32;;
16784;SDS011;8509;52.178;5.404;2024-03-06T13:18:02;10.07;;;3.95;;
16784;SDS011;8509;52.178;5.404;2024-03-06T13:20:29;9.02;;;5.13;;
16784;SDS011;8509;52.178;5.404;2024-03-06T13:22:55;6.72;;;4.32;;
16784;SDS011;8509;52.178;5.404;2024-03-06T13:25:21;9.23;;;3.75;;
16784;SDS011;8509;52.178;5.404;2024-03-06T13:27:49;9.93;;;3.42;;
16784;SDS011;8509;52.178;5.404;2024-03-06T13:30:15;4.60;;;3.08;;
16784;SDS011;8509;52.178;5.404;2024-03-06T13:32:41;8.82;;;4.18;;
16784;SDS011;8509;52.178;5.404;2024-03-06T13:35:11;10.02;;;4.05;;
16784;SDS011;8509;52.178;5.404;2024-03-06T13:37:43;7.15;;;3.88;;
16784;SDS011;8509;52.178;5.404;2024-03-06T13:40:09;8.85;;;4.15;;
16784;SDS011;8509;52.178;5.404;2024-03-06T13:42:38;8.23;;;4.10;;
16784;SDS011;8509;52.178;5.404;2024-03-06T13:45:05;6.93;;;3.97;;
16784;SDS011;8509;52.178;5.404;2024-03-06T13:47:43;6.13;;;4.05;;
16784;SDS011;8509;52.178;5.404;2024-03-06T13:50:10;6.20;;;3.50;;
16784;SDS011;8509;52.178;5.404;2024-03-06T13:52:37;5.38;;;3.08;;
16784;SDS011;8509;52.178;5.404;2024-03-06T13:55:03;5.03;;;1.63;;
16784;SDS011;8509;52.178;5.404;2024-03-06T13:57:30;2.42;;;1.48;;
16784;SDS011;8509;52.178;5.404;2024-03-06T13:59:59;1.35;;;1.08;;
16784;SDS011;8509;52.178;5.404;2024-03-06T14:02:28;2.95;;;1.10;;
16784;SDS011;8509;52.178;5.404;2024-03-06T14:04:54;3.08;;;1.70;;
16784;SDS011;8509;52.178;5.404;2024-03-06T14:07:19;4.85;;;2.35;;
16784;SDS011;8509;52.178;5.404;2024-03-06T14:09:45;2.88;;;2.10;;
16784;SDS011;8509;52.178;5.404;2024-03-06T14:12:11;2.83;;;2.17;;
16784;SDS011;8509;52.178;5.404;2024-03-06T14:14:37;5.88;;;3.03;;
16784;SDS011;8509;52.178;5.404;2024-03-06T14:17:02;6.85;;;3.25;;
16784;SDS011;8509;52.178;5.404;2024-03-06T14:19:29;6.70;;;3.95;;
16784;SDS011;8509;52.178;5.404;2024-03-06T14:21:54;6.63;;;3.38;;
16784;SDS011;8509;52.178;5.404;2024-03-06T14:24:20;7.05;;;3.38;;
16784;SDS011;8509;52.178;5.404;2024-03-06T14:26:46;6.03;;;2.60;;
16784;SDS011;8509;52.178;5.404;2024-03-06T14:29:12;6.65;;;3.40;;
16784;SDS011;8509;52.178;5.404;2024-03-06T14:31:39;7.30;;;3.63;;
16784;SDS011;8509;52.178;5.404;2024-03-06T14:34:04;7.22;;;3.95;;
16784;SDS011;8509;52.178;5.404;2024-03-06T14:36:31;4.63;;;2.90;;
16784;SDS011;8509;52.178;5.404;2024-03-06T14:38:57;6.43;;;3.03;;
16784;SDS011;8509;52.178;5.404;2024-03-06T14:41:23;5.25;;;2.85;;
16784;SDS011;8509;52.178;5.404;2024-03-06T14:43:49;5.88;;;3.47;;
16784;SDS011;8509;52.178;5.404;2024-03-06T14:46:15;5.50;;;3.22;;
16784;SDS011;8509;52.178;5.404;2024-03-06T14:48:40;6.43;;;4.00;;
16784;SDS011;8509;52.178;5.404;2024-03-06T14:51:06;5.75;;;3.58;;
16784;SDS011;8509;52.178;5.404;2024-03-06T14:53:32;8.40;;;3.65;;
16784;SDS011;8509;52.178;5.404;2024-03-06T14:55:58;6.20;;;3.55;;
16784;SDS011;8509;52.178;5.404;2024-03-06T14:58:23;6.03;;;3.33;;
16784;SDS011;8509;52.178;5.404;2024-03-06T15:00:49;5.97;;;2.97;;
16784;SDS011;8509;52.178;5.404;2024-03-06T15:03:18;6.38;;;3.47;;